Time;durP1;ratioP1;P1;durP2;ratioP2;P2;SDS_P1;SDS_P2;PMS_P1;PMS_P2;Temp;Humidity;BMP_temperature;BMP_pressure;BME280_temperature;BME280_humidity;BME280_pressure;Samples;Min_cycle;Max_cycle;Signal;HPM_P1;HPM_P2
2024/01/01 00:01:03;;;;;;;8.65;4.60;;;;;;;10.10;100.00;99977.22;5064777;28;20037;-68
2024/01/01 00:03:28;;;;;;;13.75;5.85;;;;;;;10.08;100.00;99965.31;5064704;28;20092;-68
2024/01/01 00:05:54;;;;;;;14.50;7.55;;;;;;;10.07;100.00;99959.28;5062713;28;20465;-68
2024/01/01 00:08:19;;;;;;;10.88;6.15;;;;;;;10.08;100.00;99960.09;5074853;28;20335;-68
2024/01/01 00:10:47;;;;;;;10.18;5.25;;;;;;;10.05;100.00;99956.03;5066463;28;20473;-68
2024/01/01 00:13:12;;;;;;;14.25;7.97;;;;;;;10.04;100.00;99951.78;5068151;28;20056;-68
2024/01/01 00:15:38;;;;;;;17.73;8.05;;;;;;;10.03;100.00;99939.75;5068139;28;20558;-68
2024/01/01 00:18:03;;;;;;;16.30;7.97;;;;;;;10.02;100.00;99939.91;5065188;28;20107;-68
2024/01/01 00:20:29;;;;;;;15.85;8.32;;;;;;;10.02;100.00;99932.91;5071461;28;20068;-68
2024/01/01 00:22:54;;;;;;;28.80;8.98;;;;;;;10.01;100.00;99936.47;5066950;28;20032;-67
2024/01/01 00:25:19;;;;;;;14.57;7.13;;;;;;;9.97;100.00;99924.75;5068962;28;20035;-68
2024/01/01 00:27:45;;;;;;;14.10;7.53;;;;;;;10.01;100.00;99931.28;5072984;28;20064;-68
2024/01/01 00:30:11;;;;;;;13.48;7.07;;;;;;;10.02;100.00;99922.50;5067996;28;20151;-68
2024/01/01 00:32:36;;;;;;;16.45;7.80;;;;;;;10.00;100.00;99919.22;5070259;28;20060;-68
2024/01/01 00:35:02;;;;;;;33.78;13.95;;;;;;;10.01;100.00;99914.84;5066371;28;20129;-68
2024/01/01 00:37:27;;;;;;;29.55;11.98;;;;;;;9.99;100.00;99917.59;5064725;28;20047;-68
2024/01/01 00:39:54;;;;;;;26.25;11.20;;;;;;;10.00;100.00;99927.03;5062894;28;20032;-68
2024/01/01 00:42:20;;;;;;;19.17;9.15;;;;;;;9.97;100.00;99912.53;5068578;28;20032;-68
2024/01/01 00:44:46;;;;;;;20.63;7.90;;;;;;;9.94;100.00;99904.22;5068226;28;20056;-68
2024/01/01 00:47:11;;;;;;;32.88;13.48;;;;;;;9.95;100.00;99906.69;5066266;28;20047;-68
2024/01/01 00:49:37;;;;;;;22.15;10.30;;;;;;;9.99;100.00;99917.59;5066572;28;20036;-68
2024/01/01 00:52:03;;;;;;;23.63;10.57;;;;;;;9.98;100.00;99913.38;5065396;28;20028;-67
2024/01/01 00:54:28;;;;;;;11.82;6.57;;;;;;;9.98;100.00;99903.75;5065102;28;20202;-68
2024/01/01 00:56:54;;;;;;;16.73;8.13;;;;;;;9.97;100.00;99901.31;5065562;28;20118;-67
2024/01/01 00:59:21;;;;;;;19.45;6.97;;;;;;;9.98;100.00;99908.97;5068596;28;20081;-68
2024/01/01 01:01:46;;;;;;;22.20;6.65;;;;;;;9.98;100.00;99893.34;5068636;28;20029;-67
2024/01/01 01:04:12;;;;;;;22.85;7.45;;;;;;;10.01;100.00;99891.41;5069015;28;20073;-67
2024/01/01 01:06:37;;;;;;;13.60;6.65;;;;;;;10.02;100.00;99890.44;5068255;28;20040;-68
2024/01/01 01:09:03;;;;;;;15.18;5.85;;;;;;;10.07;100.00;99883.81;5064114;28;20492;-68
2024/01/01 01:11:29;;;;;;;16.90;6.50;;;;;;;10.11;100.00;99882.53;5071059;28;20028;-68
2024/01/01 01:13:56;;;;;;;12.77;6.15;;;;;;;10.08;100.00;99869.81;5069897;28;20047;-68
2024/01/01 01:16:22;;;;;;;16.48;6.95;;;;;;;10.13;100.00;99864.97;5066801;28;20033;-68
2024/01/01 01:18:48;;;;;;;18.90;6.38;;;;;;;10.13;100.00;99862.38;5065286;28;20032;-68
2024/01/01 01:21:14;;;;;;;18.52;10.27;;;;;;;10.13;100.00;99857.16;5063961;28;20038;-67
2024/01/01 01:23:39;;;;;;;21.13;9.57;;;;;;;10.09;100.00;99855.03;5068141;28;20113;-67
2024/01/01 01:26:05;;;;;;;20.00;9.63;;;;;;;10.10;100.00;99854.88;5066546;28;20634;-67
2024/01/01 01:28:30;;;;;;;17.15;7.97;;;;;;;10.08;100.00;99849.00;5068309;28;20482;-67
2024/01/01 01:30:56;;;;;;;15.45;7.43;;;;;;;10.10;100.00;99862.69;5065960;28;20084;-68
2024/01/01 01:33:21;;;;;;;13.30;5.90;;;;;;;10.07;100.00;99855.19;5062069;28;20039;-68
2024/01/01 01:35:47;;;;;;;14.25;5.93;;;;;;;10.04;100.00;99846.88;5066250;28;20028;-68
2024/01/01 01:38:12;;;;;;;21.15;9.85;;;;;;;10.10;100.00;99833.22;5064315;28;20036;-67
2024/01/01 01:40:38;;;;;;;13.77;7.18;;;;;;;10.14;100.00;99829.34;5065919;28;20078;-67
2024/01/01 01:43:03;;;;;;;13.20;6.45;;;;;;;10.11;100.00;99824.44;5067317;28;20334;-67
2024/01/01 01:45:29;;;;;;;11.55;5.30;;;;;;;10.14;100.00;99811.94;5064059;28;20050;-67
2024/01/01 01:47:54;;;;;;;14.25;5.20;;;;;;;10.24;100.00;99817.06;5068126;28;20036;-68
2024/01/01 01:50:21;;;;;;;10.35;4.82;;;;;;;10.21;100.00;99828.59;5068097;28;20051;-68
2024/01/01 01:52:48;;;;;;;13.13;3.80;;;;;;;10.25;100.00;99814.28;5063741;28;20033;-68
2024/01/01 01:55:14;;;;;;;11.65;3.65;;;;;;;10.29;100.00;99809.59;5069072;28;20465;-67
2024/01/01 01:57:40;;;;;;;8.45;3.15;;;;;;;10.29;100.00;99794.78;5066831;28;20140;-68
2024/01/01 02:00:07;;;;;;;12.38;3.55;;;;;;;10.29;100.00;99799.16;5070686;28;20066;-68
2024/01/01 02:02:37;;;;;;;11.25;3.22;;;;;;;10.30;100.00;99795.59;5068552;28;20098;-68
2024/01/01 02:05:06;;;;;;;9.63;3.85;;;;;;;10.38;100.00;99779.19;5072460;28;20047;-68
2024/01/01 02:07:31;;;;;;;8.38;2.90;;;;;;;10.50;100.00;99775.28;5069657;28;20434;-68
2024/01/01 02:09:58;;;;;;;11.88;2.55;;;;;;;10.54;100.00;99766.16;5067951;28;20116;-68
2024/01/01 02:12:23;;;;;;;6.10;1.65;;;;;;;10.51;100.00;99753.47;5072122;28;20033;-67
2024/01/01 02:14:49;;;;;;;10.85;1.67;;;;;;;10.58;100.00;99738.81;5073014;28;20485;-67
2024/01/01 02:17:16;;;;;;;7.15;1.33;;;;;;;10.69;100.00;99732.47;5071254;28;20025;-67
2024/01/01 02:19:41;;;;;;;6.05;1.80;;;;;;;10.70;100.00;99736.72;5068194;28;20133;-68
2024/01/01 02:22:07;;;;;;;4.55;1.48;;;;;;;10.70;100.00;99744.53;5069035;28;20040;-68
2024/01/01 02:24:33;;;;;;;4.13;1.05;;;;;;;10.70;100.00;99776.59;5065586;28;20032;-67
2024/01/01 02:26:58;;;;;;;4.82;2.08;;;;;;;10.67;100.00;99823.00;5064259;28;20025;-70
2024/01/01 02:29:24;;;;;;;8.38;1.52;;;;;;;10.34;100.00;99809.13;5066645;28;20051;-69
2024/01/01 02:31:49;;;;;;;6.53;1.42;;;;;;;10.17;100.00;99834.25;5066947;28;20059;-68
2024/01/01 02:34:17;;;;;;;5.43;2.38;;;;;;;10.07;100.00;99852.56;5071829;28;20060;-68
2024/01/01 02:36:43;;;;;;;8.23;3.88;;;;;;;9.96;100.00;99851.06;5070856;28;20028;-68
2024/01/01 02:39:11;;;;;;;11.93;4.85;;;;;;;9.88;100.00;99856.25;5074079;28;20039;-67
2024/01/01 02:41:38;;;;;;;10.07;4.65;;;;;;;9.86;100.00;99870.38;5072655;28;20038;-67
2024/01/01 02:44:04;;;;;;;12.35;5.60;;;;;;;9.81;100.00;99883.03;5071272;28;20105;-67
2024/01/01 02:46:30;;;;;;;10.48;5.47;;;;;;;9.77;100.00;99859.09;5069563;28;20036;-67
2024/01/01 02:48:56;;;;;;;10.68;5.20;;;;;;;9.71;100.00;99851.09;5068437;28;20428;-67
2024/01/01 02:51:21;;;;;;;16.02;6.35;;;;;;;9.64;100.00;99863.91;5070038;28;20042;-67
2024/01/01 02:53:47;;;;;;;11.13;6.40;;;;;;;9.56;100.00;99864.66;5071194;28;20021;-67
2024/01/01 02:56:16;;;;;;;17.02;6.53;;;;;;;9.51;100.00;99871.28;5074435;28;20063;-67
2024/01/01 02:58:43;;;;;;;15.15;6.97;;;;;;;9.48;100.00;99868.97;5074016;28;20089;-68
2024/01/01 03:01:08;;;;;;;14.13;7.85;;;;;;;9.43;100.00;99892.03;5072123;28;20032;-67
2024/01/01 03:03:33;;;;;;;16.08;7.82;;;;;;;9.40;100.00;99893.16;5070238;28;20534;-67
2024/01/01 03:05:59;;;;;;;15.93;7.65;;;;;;;9.41;100.00;99888.78;5069383;28;20033;-67
2024/01/01 03:08:24;;;;;;;14.05;7.38;;;;;;;9.42;100.00;99898.22;5069052;28;20028;-67
2024/01/01 03:10:50;;;;;;;15.52;7.15;;;;;;;9.43;100.00;99903.25;5068843;28;20033;-67
2024/01/01 03:13:15;;;;;;;17.92;8.65;;;;;;;9.43;100.00;99900.66;5070033;28;20039;-67
2024/01/01 03:15:41;;;;;;;19.15;8.90;;;;;;;9.39;100.00;99909.72;5068976;28;20119;-67
2024/01/01 03:18:06;;;;;;;17.58;8.75;;;;;;;9.37;100.00;99911.66;5068853;28;20443;-67
2024/01/01 03:20:33;;;;;;;15.35;8.73;;;;;;;9.34;100.00;99911.16;5066158;28;20083;-68
2024/01/01 03:22:58;;;;;;;19.55;9.10;;;;;;;9.27;100.00;99905.72;5069414;28;20087;-68
2024/01/01 03:25:24;;;;;;;22.88;10.40;;;;;;;9.21;100.00;99908.91;5071455;28;20036;-68
2024/01/01 03:27:49;;;;;;;19.45;10.23;;;;;;;9.19;100.00;99924.66;5070893;28;20137;-68
2024/01/01 03:30:16;;;;;;;20.98;10.18;;;;;;;9.19;100.00;99934.25;5070088;28;20574;-67
2024/01/01 03:32:42;;;;;;;14.65;8.02;;;;;;;9.18;100.00;99943.00;5070699;28;20101;-68
2024/01/01 03:35:08;;;;;;;18.08;8.88;;;;;;;9.20;100.00;99944.50;5067410;28;20111;-68
2024/01/01 03:37:33;;;;;;;24.95;9.40;;;;;;;9.19;100.00;99949.84;5069023;28;20091;-68
2024/01/01 03:39:58;;;;;;;21.38;9.95;;;;;;;9.17;100.00;99959.56;5068645;28;20392;-68
2024/01/01 03:42:24;;;;;;;25.27;11.25;;;;;;;9.17;100.00;99955.19;5072099;28;20043;-67
2024/01/01 03:44:50;;;;;;;26.30;10.57;;;;;;;9.17;100.00;99962.16;5068790;28;20039;-68
2024/01/01 03:47:15;;;;;;;25.02;10.88;;;;;;;9.14;100.00;99957.25;5069196;28;20037;-68
2024/01/01 03:49:41;;;;;;;22.35;11.02;;;;;;;9.17;100.00;99972.56;5068871;28;20039;-68
2024/01/01 03:52:06;;;;;;;22.75;11.43;;;;;;;9.13;100.00;99955.63;5072899;28;20039;-68
2024/01/01 03:54:32;;;;;;;27.38;10.65;;;;;;;9.13;100.00;99951.25;5076592;28;20507;-68
2024/01/01 03:56:57;;;;;;;22.02;10.50;;;;;;;9.14;100.00;99960.66;5068721;28;20110;-67
2024/01/01 03:59:24;;;;;;;22.27;10.57;;;;;;;9.15;100.00;99964.09;5070562;28;20044;-68
2024/01/01 04:01:49;;;;;;;22.08;10.63;;;;;;;9.14;100.00;99962.44;5070034;28;20036;-68
2024/01/01 04:04:14;;;;;;;26.08;10.60;;;;;;;9.12;100.00;99959.19;5070114;28;20028;-68
2024/01/01 04:06:40;;;;;;;20.75;10.95;;;;;;;9.08;100.00;99968.22;5070900;28;20163;-67
2024/01/01 04:09:05;;;;;;;21.42;10.55;;;;;;;9.05;100.00;99966.75;5074163;28;20056;-68
2024/01/01 04:11:31;;;;;;;25.73;11.70;;;;;;;9.06;100.00;99962.38;5066840;28;20129;-68
2024/01/01 04:13:56;;;;;;;31.98;12.40;;;;;;;9.04;100.00;99964.28;5066565;28;20492;-67
2024/01/01 04:16:22;;;;;;;28.73;11.73;;;;;;;9.00;100.00;99966.38;5071207;28;20552;-68
2024/01/01 04:18:47;;;;;;;23.95;11.18;;;;;;;8.97;100.00;99961.50;5066580;28;20115;-68
2024/01/01 04:21:13;;;;;;;24.55;11.82;;;;;;;8.97;100.00;99964.09;5065536;28;20445;-68
2024/01/01 04:23:38;;;;;;;22.60;10.18;;;;;;;8.95;100.00;99973.81;5068056;28;20063;-68
2024/01/01 04:26:04;;;;;;;22.65;10.52;;;;;;;8.93;100.00;99971.34;5068637;28;20093;-68
2024/01/01 04:28:29;;;;;;;20.60;9.95;;;;;;;8.95;100.00;99984.19;5068432;28;20047;-68
2024/01/01 04:30:54;;;;;;;23.02;10.13;;;;;;;8.93;100.00;99984.34;5070083;28;20395;-68
2024/01/01 04:33:20;;;;;;;25.70;10.48;;;;;;;8.93;100.00;99989.53;5071205;28;20401;-68
2024/01/01 04:35:46;;;;;;;23.33;11.05;;;;;;;8.94;100.00;99987.75;5065779;28;20103;-67
2024/01/01 04:38:12;;;;;;;20.10;10.25;;;;;;;8.93;100.00;99992.13;5070455;28;20028;-67
2024/01/01 04:40:39;;;;;;;22.73;10.10;;;;;;;8.90;100.00;100000.22;5065313;28;20558;-68
2024/01/01 04:43:04;;;;;;;22.73;10.10;;;;;;;8.88;100.00;100009.94;5067434;28;20059;-68
2024/01/01 04:45:33;;;;;;;19.17;8.73;;;;;;;8.87;100.00;100008.31;5071938;28;20071;-68
2024/01/01 04:47:59;;;;;;;20.95;9.95;;;;;;;8.82;100.00;100013.09;5072771;28;20056;-68
2024/01/01 04:50:24;;;;;;;25.75;10.70;;;;;;;8.81;100.00;100013.25;5067966;28;20067;-68
2024/01/01 04:52:50;;;;;;;20.20;9.98;;;;;;;8.80;100.00;100017.63;5070634;28;20082;-68
2024/01/01 04:55:16;;;;;;;22.20;9.48;;;;;;;8.80;100.00;100027.19;5070830;28;20024;-68
2024/01/01 04:57:41;;;;;;;20.45;8.55;;;;;;;8.76;100.00;100029.28;5069100;28;20090;-67
2024/01/01 05:00:07;;;;;;;20.60;8.70;;;;;;;8.73;100.00;100042.53;5068121;28;20473;-68
2024/01/01 05:02:33;;;;;;;18.33;8.38;;;;;;;8.69;100.00;100040.38;5072027;28;20123;-67
2024/01/01 05:04:58;;;;;;;16.23;8.27;;;;;;;8.64;100.00;100043.38;5069684;28;20032;-68
2024/01/01 05:07:24;;;;;;;22.38;8.07;;;;;;;8.62;100.00;100034.91;5067589;28;20090;-67
2024/01/01 05:09:49;;;;;;;19.08;7.95;;;;;;;8.62;100.00;100037.50;5066932;28;20028;-68
2024/01/01 05:12:16;;;;;;;18.38;8.35;;;;;;;8.59;100.00;100041.22;5068453;28;20090;-68
2024/01/01 05:14:41;;;;;;;17.50;8.43;;;;;;;8.56;100.00;100041.50;5068555;28;20047;-68
2024/01/01 05:17:07;;;;;;;19.55;8.65;;;;;;;8.53;100.00;100039.19;5069594;28;20044;-68
2024/01/01 05:19:32;;;;;;;20.45;7.72;;;;;;;8.50;100.00;100042.09;5071503;28;20036;-68
2024/01/01 05:21:58;;;;;;;16.30;8.13;;;;;;;8.51;100.00;100041.09;5069419;28;20032;-68
2024/01/01 05:24:24;;;;;;;16.65;7.53;;;;;;;8.52;100.00;100057.50;5068250;28;20102;-68
2024/01/01 05:26:49;;;;;;;18.33;8.05;;;;;;;8.48;100.00;100064.78;5067167;28;20032;-68
2024/01/01 05:29:14;;;;;;;15.77;7.50;;;;;;;8.44;100.00;100067.78;5067508;28;20139;-68
2024/01/01 05:31:40;;;;;;;14.93;6.97;;;;;;;8.46;100.00;100066.69;5066213;28;20049;-68
2024/01/01 05:34:05;;;;;;;13.82;6.82;;;;;;;8.48;100.00;100063.97;5067133;28;20043;-68
2024/01/01 05:36:31;;;;;;;16.05;6.53;;;;;;;8.48;100.00;100063.97;5070051;28;20035;-68
2024/01/01 05:38:56;;;;;;;17.17;7.20;;;;;;;8.45;100.00;100072.84;5073803;28;20024;-67
2024/01/01 05:41:22;;;;;;;16.25;6.43;;;;;;;8.44;100.00;100083.38;5074135;28;20406;-68
2024/01/01 05:43:47;;;;;;;16.58;6.97;;;;;;;8.42;100.00;100086.09;5071696;28;20385;-68
2024/01/01 05:46:13;;;;;;;17.50;8.20;;;;;;;8.41;100.00;100100.03;5070877;28;20035;-68
2024/01/01 05:48:38;;;;;;;13.77;5.53;;;;;;;8.42;100.00;100101.69;5069902;28;20025;-68
2024/01/01 05:51:04;;;;;;;14.38;6.43;;;;;;;8.45;100.00;100105.78;5070490;28;20371;-68
2024/01/01 05:53:29;;;;;;;17.75;7.40;;;;;;;8.45;100.00;100116.16;5073935;28;20493;-68
2024/01/01 05:55:54;;;;;;;15.32;7.70;;;;;;;8.43;100.00;100120.69;5072171;28;20024;-68
2024/01/01 05:58:20;;;;;;;21.42;8.73;;;;;;;8.40;100.00;100123.53;5072229;28;20059;-67
2024/01/01 06:00:45;;;;;;;18.52;9.30;;;;;;;8.35;100.00;100125.72;5072051;28;20125;-67
2024/01/01 06:03:11;;;;;;;22.00;9.20;;;;;;;8.32;100.00;100132.00;5072171;28;20051;-68
2024/01/01 06:05:36;;;;;;;18.45;8.85;;;;;;;8.27;100.00;100142.78;5070765;28;20028;-68
2024/01/01 06:08:02;;;;;;;20.63;8.77;;;;;;;8.25;100.00;100139.50;5070829;28;20040;-68
2024/01/01 06:10:29;;;;;;;17.88;7.78;;;;;;;8.26;100.00;100148.09;5070588;28;20406;-68
2024/01/01 06:12:56;;;;;;;23.40;8.38;;;;;;;8.28;100.00;100151.38;5071713;28;20109;-68
2024/01/01 06:15:22;;;;;;;20.95;9.75;;;;;;;8.27;100.00;100157.53;5073453;28;20033;-68
2024/01/01 06:17:48;;;;;;;19.30;9.02;;;;;;;8.26;100.00;100164.50;5072100;28;20123;-68
2024/01/01 06:20:13;;;;;;;19.40;9.38;;;;;;;8.19;100.00;100167.78;5074825;28;20434;-68
2024/01/01 06:22:39;;;;;;;17.23;8.43;;;;;;;8.14;100.00;100175.97;5068980;28;20086;-69
2024/01/01 06:25:04;;;;;;;19.13;8.35;;;;;;;8.15;100.00;100171.59;5067930;28;20124;-69
2024/01/01 06:27:30;;;;;;;22.20;7.93;;;;;;;8.18;100.00;100169.56;5069008;28;20031;-68
2024/01/01 06:29:55;;;;;;;17.17;8.52;;;;;;;8.18;100.00;100166.94;5071747;28;20115;-68
2024/01/01 06:32:21;;;;;;;17.20;8.70;;;;;;;8.13;100.00;100166.53;5071331;28;20198;-68
2024/01/01 06:34:46;;;;;;;16.77;8.10;;;;;;;8.05;100.00;100174.19;5068952;28;20038;-68
2024/01/01 06:37:12;;;;;;;22.73;9.93;;;;;;;8.07;100.00;100174.88;5078149;28;20047;-68
2024/01/01 06:39:37;;;;;;;25.50;9.50;;;;;;;8.08;100.00;100186.88;5066347;28;20139;-68
2024/01/01 06:42:03;;;;;;;19.45;8.32;;;;;;;8.08;100.00;100176.50;5072705;28;20086;-68
2024/01/01 06:44:28;;;;;;;17.48;7.88;;;;;;;8.07;100.00;100185.25;5069349;28;20047;-68
2024/01/01 06:46:54;;;;;;;22.77;9.00;;;;;;;8.09;100.00;100182.50;5069894;28;20561;-68
2024/01/01 06:49:19;;;;;;;24.92;8.18;;;;;;;8.05;100.00;100192.34;5070524;28;20023;-68
2024/01/01 06:51:50;;;;;;;17.30;7.53;;;;;;;8.01;100.00;100206.56;5069161;28;20024;-68
2024/01/01 06:54:17;;;;;;;20.00;8.10;;;;;;;7.99;100.00;100214.47;5071059;28;20036;-68
2024/01/01 06:56:43;;;;;;;22.08;8.27;;;;;;;7.96;100.00;100216.53;5067155;28;20079;-68
2024/01/01 06:59:12;;;;;;;22.40;8.82;;;;;;;7.96;100.00;100219.13;5069837;28;20393;-68
2024/01/01 07:01:37;;;;;;;22.80;9.63;;;;;;;7.95;100.00;100220.88;5069867;28;20032;-68
2024/01/01 07:04:03;;;;;;;30.55;10.52;;;;;;;7.96;100.00;100225.13;5068528;28;20043;-68
2024/01/01 07:06:28;;;;;;;23.92;10.05;;;;;;;7.95;100.00;100226.06;5064457;28;20033;-68
2024/01/01 07:08:54;;;;;;;33.20;10.48;;;;;;;7.96;100.00;100237.28;5070044;28;20032;-68
2024/01/01 07:11:19;;;;;;;23.13;9.50;;;;;;;7.96;100.00;100238.09;5069385;28;20024;-68
2024/01/01 07:13:45;;;;;;;34.38;7.93;;;;;;;7.92;100.00;100241.09;5068731;28;20043;-68
2024/01/01 07:16:10;;;;;;;19.98;8.05;;;;;;;7.92;100.00;100246.28;5070839;28;20025;-68
2024/01/01 07:18:35;;;;;;;22.25;9.13;;;;;;;7.95;100.00;100248.59;5068800;28;20021;-68
2024/01/01 07:21:01;;;;;;;18.67;8.02;;;;;;;7.95;100.00;100251.19;5084490;28;20816;-68
2024/01/01 07:23:27;;;;;;;17.95;7.32;;;;;;;7.96;100.00;100263.22;5064329;28;20033;-68
2024/01/01 07:25:52;;;;;;;19.65;7.97;;;;;;;7.92;100.00;100260.06;5068875;28;20115;-68
2024/01/01 07:28:17;;;;;;;17.35;7.75;;;;;;;7.83;100.00;100260.84;5067716;28;20036;-68
2024/01/01 07:30:43;;;;;;;16.60;7.13;;;;;;;7.80;100.00;100265.47;5065345;28;20497;-68
2024/01/01 07:33:08;;;;;;;15.65;6.93;;;;;;;7.83;100.00;100270.41;5069514;28;20028;-68
2024/01/01 07:35:34;;;;;;;14.20;5.65;;;;;;;7.83;100.00;100270.41;5068589;28;20029;-68
2024/01/01 07:38:00;;;;;;;14.15;6.05;;;;;;;7.82;100.00;100276.53;5070235;28;20074;-68
2024/01/01 07:40:25;;;;;;;12.57;6.25;;;;;;;7.84;100.00;100287.63;5068411;28;20035;-68
2024/01/01 07:42:51;;;;;;;14.55;6.13;;;;;;;7.80;100.00;100289.66;5066506;28;20032;-68
2024/01/01 07:45:16;;;;;;;12.30;5.38;;;;;;;7.78;100.00;100290.72;5067882;28;20040;-68
2024/01/01 07:47:42;;;;;;;7.95;4.25;;;;;;;7.80;100.00;100291.41;5068488;28;20028;-67
2024/01/01 07:50:07;;;;;;;14.15;4.32;;;;;;;7.79;100.00;100297.56;5071270;28;20067;-68
2024/01/01 07:52:33;;;;;;;9.50;3.58;;;;;;;7.74;100.00;100297.94;5067826;28;20039;-68
2024/01/01 07:54:58;;;;;;;5.25;2.03;;;;;;;7.70;100.00;100299.16;5066909;28;20448;-68
2024/01/01 07:57:24;;;;;;;7.00;1.95;;;;;;;7.69;100.00;100299.28;5069137;28;20087;-68
2024/01/01 07:59:51;;;;;;;4.47;2.00;;;;;;;7.65;100.00;100304.72;5072448;28;20052;-69
2024/01/01 08:02:18;;;;;;;7.18;2.25;;;;;;;7.68;100.00;100308.00;5065216;28;20040;-68
2024/01/01 08:04:44;;;;;;;3.57;1.73;;;;;;;7.69;100.00;100315.66;5068300;28;20030;-68
2024/01/01 08:07:09;;;;;;;4.15;2.35;;;;;;;7.68;100.00;100313.19;5068894;28;20029;-69
2024/01/01 08:09:35;;;;;;;6.35;2.42;;;;;;;7.71;100.00;100313.75;5068677;28;20432;-68
2024/01/01 08:12:01;;;;;;;6.85;2.42;;;;;;;7.74;100.00;100307.50;5063412;28;20024;-69
2024/01/01 08:14:26;;;;;;;5.90;2.55;;;;;;;7.74;100.00;100304.91;5061964;28;20503;-69
2024/01/01 08:16:52;;;;;;;3.95;1.90;;;;;;;7.72;100.00;100306.81;5071377;28;20039;-69
2024/01/01 08:19:17;;;;;;;5.50;2.75;;;;;;;7.72;100.00;100309.41;5067302;28;20450;-68
2024/01/01 08:21:43;;;;;;;7.53;2.78;;;;;;;7.78;100.00;100308.88;5067288;28;20036;-70
2024/01/01 08:24:08;;;;;;;7.35;3.65;;;;;;;7.80;100.00;100310.41;5068817;28;20171;-70
2024/01/01 08:26:34;;;;;;;5.38;2.55;;;;;;;7.82;100.00;100307.66;5065339;28;20537;-70
2024/01/01 08:28:59;;;;;;;4.90;2.00;;;;;;;7.82;100.00;100310.25;5071786;28;20174;-70
2024/01/01 08:31:25;;;;;;;6.10;1.95;;;;;;;7.80;100.00;100325.13;5072607;28;20036;-70
2024/01/01 08:33:50;;;;;;;6.90;2.30;;;;;;;7.83;100.00;100325.69;5067004;28;20036;-70
2024/01/01 08:36:16;;;;;;;8.45;3.00;;;;;;;7.86;100.00;100335.00;5074037;28;20031;-70
2024/01/01 08:38:41;;;;;;;7.18;3.38;;;;;;;7.90;100.00;100339.78;5064893;28;20043;-70
2024/01/01 08:41:07;;;;;;;5.47;2.72;;;;;;;7.96;100.00;100351.44;5068338;28;20499;-70
2024/01/01 08:43:32;;;;;;;5.57;2.60;;;;;;;7.91;100.00;100349.22;5059558;28;20107;-70
2024/01/01 08:46:00;;;;;;;7.53;2.97;;;;;;;7.76;100.00;100347.91;5069393;28;20024;-70
2024/01/01 08:48:25;;;;;;;4.65;1.52;;;;;;;7.63;100.00;100357.66;5065776;28;20170;-69
2024/01/01 08:50:51;;;;;;;4.78;1.40;;;;;;;7.53;100.00;100357.63;5071652;28;20528;-70
2024/01/01 08:53:16;;;;;;;1.88;0.60;;;;;;;7.49;100.00;100366.63;5067410;28;20032;-69
2024/01/01 08:55:42;;;;;;;2.20;0.60;;;;;;;7.50;100.00;100368.25;5069946;28;20032;-69
2024/01/01 08:58:07;;;;;;;1.85;0.50;;;;;;;7.47;100.00;100381.47;5066729;28;20095;-70
2024/01/01 09:00:33;;;;;;;3.58;0.70;;;;;;;7.49;100.00;100382.16;5065428;28;20162;-70
2024/01/01 09:02:58;;;;;;;2.50;0.75;;;;;;;7.50;100.00;100394.19;5072873;28;20085;-70
2024/01/01 09:05:24;;;;;;;1.92;1.15;;;;;;;7.44;100.00;100397.28;5069262;28;20054;-70
2024/01/01 09:07:50;;;;;;;2.42;0.68;;;;;;;7.47;100.00;100394.44;5071824;28;20025;-71
2024/01/01 09:10:16;;;;;;;1.90;0.47;;;;;;;7.46;100.00;100403.16;5066010;28;20044;-70
2024/01/01 09:12:42;;;;;;;1.35;0.40;;;;;;;7.40;100.00;100401.06;5066785;28;20047;-70
2024/01/01 09:15:08;;;;;;;1.90;0.30;;;;;;;7.38;100.00;100402.13;5068948;28;20119;-70
2024/01/01 09:17:34;;;;;;;1.73;0.30;;;;;;;7.38;100.00;100407.31;5066992;28;20062;-70
2024/01/01 09:19:59;;;;;;;1.70;0.45;;;;;;;7.30;100.00;100413.94;5067438;28;20549;-70
2024/01/01 09:22:25;;;;;;;2.67;0.70;;;;;;;7.28;100.00;100418.44;5068177;28;20450;-71
2024/01/01 09:24:50;;;;;;;4.10;0.50;;;;;;;7.29;100.00;100411.47;5063940;28;20527;-70
2024/01/01 09:27:16;;;;;;;1.30;0.30;;;;;;;7.32;100.00;100412.06;5067481;28;20038;-70
2024/01/01 09:29:42;;;;;;;2.58;0.30;;;;;;;7.36;100.00;100415.22;5067438;28;20044;-70
2024/01/01 09:32:07;;;;;;;1.08;0.20;;;;;;;7.38;100.00;100420.28;5067024;28;20059;-70
2024/01/01 09:34:33;;;;;;;1.38;0.10;;;;;;;7.31;100.00;100422.53;5068303;28;20028;-71
2024/01/01 09:36:59;;;;;;;0.40;0.13;;;;;;;7.35;100.00;100421.34;5064830;28;20040;-70
2024/01/01 09:39:25;;;;;;;0.32;0.10;;;;;;;7.39;100.00;100422.75;5063415;28;20525;-70
2024/01/01 09:41:52;;;;;;;0.43;0.10;;;;;;;7.45;100.00;100418.84;5065959;28;20036;-70
2024/01/01 09:44:17;;;;;;;1.35;0.20;;;;;;;7.41;100.00;100417.44;5062809;28;20036;-70
2024/01/01 09:46:43;;;;;;;3.20;0.10;;;;;;;7.44;100.00;100420.59;5071204;28;21309;-70
2024/01/01 09:49:08;;;;;;;0.50;0.30;;;;;;;7.49;100.00;100418.47;5066705;28;20024;-71
2024/01/01 09:51:40;;;;;;;1.30;0.28;;;;;;;7.51;100.00;100416.56;5065657;28;20077;-70
2024/01/01 09:54:07;;;;;;;0.47;0.20;;;;;;;7.64;100.00;100419.78;5069782;28;20032;-73
2024/01/01 09:56:33;;;;;;;0.90;0.15;;;;;;;7.62;100.00;100413.88;5065880;28;20025;-70
2024/01/01 09:58:59;;;;;;;0.73;0.50;;;;;;;7.81;100.00;100412.38;5066161;28;20028;-70
2024/01/01 10:01:24;;;;;;;1.42;0.40;;;;;;;7.79;100.00;100409.09;5067501;28;20036;-68
2024/01/01 10:04:02;;;;;;;1.08;0.30;;;;;;;7.80;100.00;100395.16;5066084;28;20564;-68
2024/01/01 10:06:29;;;;;;;0.75;0.30;;;;;;;7.76;100.00;100392.00;5065009;28;20516;-68
2024/01/01 10:09:20;;;;;;;1.45;0.40;;;;;;;7.84;100.00;100394.78;5067066;28;20504;-68
2024/01/01 10:11:46;;;;;;;0.47;0.15;;;;;;;7.81;100.00;100394.22;5066104;28;20123;-68
2024/01/01 10:14:12;;;;;;;0.93;0.20;;;;;;;7.87;100.00;100401.47;5068098;28;20116;-68
2024/01/01 10:16:38;;;;;;;2.10;0.30;;;;;;;8.03;100.00;100395.84;5066356;28;20028;-68
2024/01/01 10:19:04;;;;;;;1.40;0.30;;;;;;;8.14;100.00;100383.56;5070073;28;20028;-68
2024/01/01 10:21:36;;;;;;;0.95;0.20;;;;;;;8.19;100.00;100384.00;5069548;28;20466;-68
2024/01/01 10:24:13;;;;;;;2.08;0.50;;;;;;;8.20;100.00;100372.66;5068573;28;20077;-68
2024/01/01 10:26:43;;;;;;;0.77;0.25;;;;;;;8.22;100.00;100370.75;5069460;28;20385;-68
2024/01/01 10:29:12;;;;;;;2.10;0.30;;;;;;;8.22;100.00;100375.94;5067122;28;20090;-67
2024/01/01 10:31:44;;;;;;;0.73;0.20;;;;;;;8.15;100.00;100368.81;5067731;28;20041;-67
2024/01/01 10:34:11;;;;;;;1.20;0.20;;;;;;;8.23;100.00;100377.59;5077024;28;20031;-68
2024/01/01 10:36:37;;;;;;;2.03;0.20;;;;;;;8.20;100.00;100366.66;5067797;28;20528;-68
2024/01/01 10:39:05;;;;;;;1.05;0.20;;;;;;;8.11;100.00;100368.25;5070600;28;20477;-68
2024/01/01 10:41:34;;;;;;;0.80;0.20;;;;;;;8.14;100.00;100364.59;5068265;28;20032;-67
2024/01/01 10:44:02;;;;;;;1.05;0.10;;;;;;;8.13;100.00;100363.75;5070835;28;20394;-69
2024/01/01 10:46:32;;;;;;;1.40;0.10;;;;;;;8.11;100.00;100368.25;5070166;28;20107;-68
2024/01/01 10:48:58;;;;;;;1.52;0.20;;;;;;;8.16;100.00;100379.06;5070762;28;20028;-68
2024/01/01 10:51:55;;;;;;;3.03;0.30;;;;;;;8.23;100.00;100371.59;5069891;28;20036;-68
2024/01/01 10:54:57;;;;;;;0.77;0.20;;;;;;;8.25;100.00;100370.50;5074542;28;20385;-68
2024/01/01 10:57:31;;;;;;;0.98;0.13;;;;;;;8.29;100.00;100373.66;5069913;28;20378;-68
2024/01/01 11:00:24;;;;;;;0.68;0.10;;;;;;;8.30;100.00;100368.34;5070686;28;20064;-68
2024/01/01 11:02:50;;;;;;;0.50;0.10;;;;;;;8.27;100.00;100363.41;5071192;28;20028;-68
2024/01/01 11:05:16;;;;;;;0.55;0.10;;;;;;;8.23;100.00;100367.22;5066622;28;20109;-68
2024/01/01 11:07:54;;;;;;;1.45;0.20;;;;;;;8.31;100.00;100374.34;5068126;28;20037;-68
2024/01/01 11:10:42;;;;;;;1.15;0.10;;;;;;;8.31;100.00;100369.97;5070176;28;20039;-68
2024/01/01 11:13:26;;;;;;;0.88;0.10;;;;;;;8.22;100.00;100364.75;5073163;28;20558;-68
2024/01/01 11:16:01;;;;;;;0.30;0.10;;;;;;;8.25;100.00;100369.69;5075756;28;20425;-68
2024/01/01 11:18:37;;;;;;;0.87;0.10;;;;;;;8.31;100.00;100363.97;5069940;28;20328;-68